Time;durP1;ratioP1;P1;durP2;ratioP2;P2;SDS_P1;SDS_P2;PMS_P1;PMS_P2;Temp;Humidity;BMP_temperature;BMP_pressure;BME280_temperature;BME280_humidity;BME280_pressure;Samples;Min_cycle;Max_cycle;Signal;HPM_P1;HPM_P2
2021/10/12 00:02:22;;;;;;;41.08;23.85;;;6.40;99.90;;;;;;4953447;28;20058;-82
2021/10/12 00:04:50;;;;;;;32.25;18.80;;;6.30;99.90;;;;;;4965255;28;20484;-82
2021/10/12 00:07:18;;;;;;;32.45;18.25;;;6.30;99.90;;;;;;4973208;28;20488;-82
2021/10/12 00:09:46;;;;;;;33.63;17.17;;;6.30;99.90;;;;;;4972856;28;20080;-82
2021/10/12 00:12:13;;;;;;;26.08;17.17;;;6.30;99.90;;;;;;4972916;28;20089;-83
2021/10/12 00:14:41;;;;;;;32.08;18.10;;;6.30;99.90;;;;;;4961339;28;20051;-82
2021/10/12 00:17:09;;;;;;;25.70;14.60;;;6.20;99.90;;;;;;4953517;29;20059;-82
2021/10/12 00:19:37;;;;;;;24.38;14.52;;;6.30;99.90;;;;;;4936840;29;20058;-82
2021/10/12 00:22:04;;;;;;;39.80;17.48;;;6.30;99.90;;;;;;4953261;28;20058;-82
2021/10/12 00:24:33;;;;;;;30.80;18.25;;;6.20;99.90;;;;;;4953371;29;20051;-82
2021/10/12 00:27:02;;;;;;;27.80;16.55;;;6.20;99.90;;;;;;4957902;28;20054;-82
2021/10/12 00:29:30;;;;;;;25.70;14.50;;;6.20;99.90;;;;;;4972378;28;20475;-81
2021/10/12 00:31:58;;;;;;;33.15;16.42;;;6.20;99.90;;;;;;4972853;28;20054;-82
2021/10/12 00:34:26;;;;;;;26.85;15.48;;;6.20;99.90;;;;;;4972504;28;20042;-82
2021/10/12 00:36:53;;;;;;;24.65;16.63;;;6.10;99.90;;;;;;4972309;28;20042;-82
2021/10/12 00:39:21;;;;;;;38.08;17.15;;;6.20;99.90;;;;;;4972542;28;20088;-82
2021/10/12 00:41:50;;;;;;;26.58;16.60;;;6.20;99.90;;;;;;4971752;28;20055;-83
2021/10/12 00:44:18;;;;;;;29.88;17.17;;;6.20;99.90;;;;;;4972588;28;20074;-82
2021/10/12 00:46:46;;;;;;;26.17;17.90;;;6.20;99.90;;;;;;4970335;28;20047;-82
2021/10/12 00:49:13;;;;;;;32.35;20.15;;;6.20;99.90;;;;;;4945862;28;20492;-82
2021/10/12 00:51:41;;;;;;;32.22;15.82;;;6.20;99.90;;;;;;4953324;29;20048;-82
2021/10/12 00:54:08;;;;;;;30.45;15.70;;;6.20;99.90;;;;;;4952910;29;20044;-81
2021/10/12 00:56:37;;;;;;;28.60;17.60;;;6.20;99.90;;;;;;4952701;29;20654;-81
2021/10/12 00:59:07;;;;;;;28.98;18.02;;;6.20;99.90;;;;;;4953083;29;20058;-82
2021/10/12 01:01:37;;;;;;;30.00;18.13;;;6.30;99.90;;;;;;4935673;29;20058;-82
2021/10/12 01:04:06;;;;;;;29.20;17.52;;;6.30;99.90;;;;;;4953270;29;20062;-82
2021/10/12 01:06:35;;;;;;;30.15;16.05;;;6.40;99.90;;;;;;4935797;29;20051;-82
2021/10/12 01:09:03;;;;;;;28.17;18.52;;;6.40;99.90;;;;;;4952237;28;20055;-82
2021/10/12 01:11:34;;;;;;;23.90;16.15;;;6.40;99.90;;;;;;4952904;29;20466;-81
2021/10/12 01:14:02;;;;;;;26.83;18.58;;;6.40;99.90;;;;;;4952504;29;20058;-81
2021/10/12 01:16:30;;;;;;;35.63;19.60;;;6.40;99.90;;;;;;4935179;29;20052;-82
2021/10/12 01:19:06;;;;;;;32.70;19.45;;;6.50;99.90;;;;;;4935633;29;20397;-83
2021/10/12 01:21:52;;;;;;;38.35;16.58;;;6.50;99.90;;;;;;4934677;29;20051;-81
2021/10/12 01:24:20;;;;;;;30.08;21.13;;;6.60;99.90;;;;;;4919448;29;20051;-81
2021/10/12 01:26:47;;;;;;;25.50;17.80;;;6.70;99.90;;;;;;4937467;28;20102;-82
2021/10/12 01:29:15;;;;;;;30.48;15.20;;;6.70;99.90;;;;;;4954135;28;20066;-83
2021/10/12 01:31:43;;;;;;;32.85;17.95;;;6.70;99.90;;;;;;4954809;28;20069;-82
2021/10/12 01:34:18;;;;;;;26.25;15.45;;;6.80;99.90;;;;;;4954467;28;20053;-83
2021/10/12 01:36:48;;;;;;;22.17;17.02;;;6.80;99.90;;;;;;4971667;28;20057;-81
2021/10/12 01:39:17;;;;;;;25.30;15.25;;;6.80;99.90;;;;;;4972146;28;20392;-82
2021/10/12 01:41:45;;;;;;;31.08;18.98;;;6.90;99.90;;;;;;4935062;29;20051;-83
2021/10/12 01:44:16;;;;;;;26.58;15.05;;;6.80;99.90;;;;;;4952536;29;20048;-83
2021/10/12 01:46:52;;;;;;;31.55;17.50;;;6.90;99.90;;;;;;4952452;28;20062;-88
2021/10/12 01:49:22;;;;;;;26.52;16.58;;;6.80;99.90;;;;;;4935797;29;20051;-87
2021/10/12 01:51:50;;;;;;;29.30;18.63;;;6.90;99.90;;;;;;4951306;29;20477;-87
2021/10/12 01:54:21;;;;;;;23.80;15.13;;;6.90;99.90;;;;;;4935415;29;20058;-86
2021/10/12 01:56:50;;;;;;;24.37;18.77;;;6.80;99.90;;;;;;4923332;29;20561;-87
2021/10/12 01:59:18;;;;;;;32.85;17.35;;;6.80;99.90;;;;;;4913778;29;20067;-79
2021/10/12 02:01:46;;;;;;;29.02;17.80;;;6.80;99.90;;;;;;4916103;29;20044;-79
2021/10/12 02:04:14;;;;;;;20.63;12.10;;;6.80;99.90;;;;;;4941509;29;20044;-78
2021/10/12 02:06:42;;;;;;;27.83;17.60;;;6.80;99.90;;;;;;4936350;29;20397;-79
2021/10/12 02:09:09;;;;;;;27.40;15.93;;;6.70;99.90;;;;;;4953391;28;20043;-79
2021/10/12 02:11:37;;;;;;;19.98;14.88;;;6.70;99.90;;;;;;4952619;29;20054;-79
2021/10/12 02:14:05;;;;;;;18.02;12.80;;;6.70;99.90;;;;;;4937687;29;20040;-79
2021/10/12 02:16:33;;;;;;;21.40;14.00;;;6.70;99.90;;;;;;4898351;29;20059;-79
2021/10/12 02:19:01;;;;;;;25.67;14.00;;;6.80;99.90;;;;;;4915647;29;20048;-79
2021/10/12 02:21:28;;;;;;;19.20;13.35;;;6.70;99.90;;;;;;4913078;29;20201;-79
2021/10/12 02:23:56;;;;;;;22.33;14.10;;;6.70;99.90;;;;;;4915341;29;20386;-79
2021/10/12 02:26:24;;;;;;;19.95;13.73;;;6.70;99.90;;;;;;4913307;29;20048;-79
2021/10/12 02:28:51;;;;;;;23.55;13.80;;;6.70;99.90;;;;;;4950971;28;20062;-79
2021/10/12 02:31:19;;;;;;;19.83;13.77;;;6.70;99.90;;;;;;4951583;29;20489;-79
2021/10/12 02:33:47;;;;;;;22.48;13.02;;;6.70;99.90;;;;;;4941808;29;20717;-78
2021/10/12 02:36:15;;;;;;;20.17;13.27;;;6.70;99.90;;;;;;4934232;29;20043;-80
2021/10/12 02:38:43;;;;;;;23.77;13.73;;;6.60;99.90;;;;;;4933486;29;20047;-80
2021/10/12 02:41:11;;;;;;;21.85;12.43;;;6.50;99.90;;;;;;4918242;29;20047;-81
2021/10/12 02:43:39;;;;;;;24.25;15.70;;;6.70;99.90;;;;;;4934332;29;20413;-80
2021/10/12 02:46:06;;;;;;;24.13;12.52;;;6.60;99.90;;;;;;4952792;29;20520;-81
2021/10/12 02:48:34;;;;;;;21.63;14.25;;;6.50;99.90;;;;;;4937231;29;20075;-81
2021/10/12 02:51:02;;;;;;;21.75;12.98;;;6.60;99.90;;;;;;4932868;29;20043;-80
2021/10/12 02:53:30;;;;;;;30.23;13.15;;;6.50;99.90;;;;;;4933243;29;20044;-81
2021/10/12 02:55:57;;;;;;;17.02;12.35;;;6.50;99.90;;;;;;4934326;29;20051;-81
2021/10/12 02:58:26;;;;;;;17.67;13.65;;;6.60;99.90;;;;;;4931886;29;20044;-80
2021/10/12 03:00:53;;;;;;;19.67;12.02;;;6.60;99.90;;;;;;4932952;29;20055;-80
2021/10/12 03:03:21;;;;;;;21.30;12.43;;;6.60;99.90;;;;;;4916852;29;20063;-80
2021/10/12 03:05:49;;;;;;;23.90;12.52;;;6.60;99.90;;;;;;4916245;29;20059;-80
2021/10/12 03:08:17;;;;;;;17.98;11.73;;;6.60;99.90;;;;;;4915927;29;20323;-81
2021/10/12 03:10:44;;;;;;;21.92;12.30;;;6.60;99.90;;;;;;4915683;29;20052;-80
2021/10/12 03:13:12;;;;;;;17.48;11.10;;;6.60;99.90;;;;;;4913602;29;20405;-81
2021/10/12 03:15:40;;;;;;;21.65;12.98;;;6.70;99.90;;;;;;4933631;29;20052;-81
2021/10/12 03:18:07;;;;;;;32.17;13.55;;;6.60;99.90;;;;;;4933028;29;20055;-81
2021/10/12 03:20:36;;;;;;;17.85;11.60;;;6.60;99.90;;;;;;4915057;29;20067;-81
2021/10/12 03:23:03;;;;;;;17.90;11.20;;;6.60;99.90;;;;;;4916207;29;20502;-81
2021/10/12 03:25:32;;;;;;;19.25;11.50;;;6.60;99.90;;;;;;4932775;29;20051;-80
2021/10/12 03:27:59;;;;;;;17.38;11.10;;;6.60;99.90;;;;;;4955400;28;20066;-80
2021/10/12 03:30:27;;;;;;;17.17;11.82;;;6.70;99.90;;;;;;4970713;28;20496;-81
2021/10/12 03:32:55;;;;;;;20.92;11.77;;;6.70;99.90;;;;;;4970954;28;20042;-81
2021/10/12 03:35:30;;;;;;;16.63;11.32;;;6.70;99.90;;;;;;4972442;28;20085;-80
2021/10/12 03:37:58;;;;;;;16.70;11.82;;;6.80;99.90;;;;;;4973236;28;20043;-80
2021/10/12 03:40:26;;;;;;;22.88;12.40;;;6.80;99.90;;;;;;4973545;28;20054;-80
2021/10/12 03:42:54;;;;;;;19.13;9.75;;;6.80;99.90;;;;;;4955244;28;20054;-80
2021/10/12 03:45:22;;;;;;;30.67;12.75;;;6.80;99.90;;;;;;4972934;28;20050;-80
2021/10/12 03:47:50;;;;;;;20.38;11.35;;;6.80;99.90;;;;;;4973799;28;20054;-81
2021/10/12 03:50:17;;;;;;;17.13;10.32;;;6.90;99.90;;;;;;4955083;28;20590;-81
2021/10/12 03:52:47;;;;;;;26.50;16.63;;;7.00;99.90;;;;;;4953719;29;20058;-81
2021/10/12 03:55:15;;;;;;;18.30;11.05;;;6.80;99.90;;;;;;4953989;29;20059;-80
2021/10/12 03:57:43;;;;;;;21.77;13.88;;;6.90;99.90;;;;;;4953063;29;20040;-81
2021/10/12 04:00:11;;;;;;;14.82;11.45;;;6.90;99.90;;;;;;4954215;29;20051;-81
2021/10/12 04:02:39;;;;;;;20.25;12.45;;;6.80;99.90;;;;;;4920612;29;20063;-81
2021/10/12 04:05:08;;;;;;;20.33;12.98;;;6.90;99.90;;;;;;4934011;28;20115;-81
2021/10/12 04:07:35;;;;;;;26.98;11.80;;;6.90;99.90;;;;;;4969467;28;20047;-81
2021/10/12 04:10:04;;;;;;;21.35;10.93;;;6.90;99.90;;;;;;4904618;29;20059;-81
2021/10/12 04:12:32;;;;;;;22.02;14.85;;;6.90;99.90;;;;;;4951752;29;20039;-81
2021/10/12 04:15:00;;;;;;;27.08;14.95;;;6.90;99.90;;;;;;4953512;29;20385;-81
2021/10/12 04:17:27;;;;;;;19.80;12.68;;;6.90;99.90;;;;;;4953527;29;20039;-81
2021/10/12 04:19:55;;;;;;;20.02;11.48;;;6.90;99.90;;;;;;4954004;29;20481;-80
2021/10/12 04:22:23;;;;;;;23.10;14.18;;;6.90;99.90;;;;;;4952938;28;20108;-81
2021/10/12 04:24:50;;;;;;;24.73;13.27;;;6.90;99.90;;;;;;4952252;28;20480;-80
2021/10/12 04:27:18;;;;;;;22.95;12.95;;;6.80;99.90;;;;;;4942864;28;20507;-80
2021/10/12 04:29:49;;;;;;;18.75;11.80;;;6.80;99.90;;;;;;4955201;28;20047;-80
2021/10/12 04:32:17;;;;;;;20.23;15.38;;;6.90;99.90;;;;;;4955786;28;20051;-80
2021/10/12 04:34:45;;;;;;;18.17;12.68;;;6.90;99.90;;;;;;4972543;28;20034;-80
2021/10/12 04:37:13;;;;;;;25.55;13.77;;;6.90;99.90;;;;;;4972049;28;20404;-80
2021/10/12 04:39:40;;;;;;;21.10;12.05;;;6.90;99.90;;;;;;4972771;28;20054;-80
2021/10/12 04:42:08;;;;;;;23.23;14.55;;;6.90;99.90;;;;;;4938551;28;20495;-80
2021/10/12 04:44:36;;;;;;;26.25;14.38;;;6.90;99.90;;;;;;4954461;28;20051;-80
2021/10/12 04:47:04;;;;;;;20.52;12.50;;;7.00;99.90;;;;;;4936320;29;20043;-80
2021/10/12 04:49:31;;;;;;;23.52;14.35;;;7.00;99.90;;;;;;4953090;28;20051;-80
2021/10/12 04:51:59;;;;;;;24.50;15.10;;;7.00;99.90;;;;;;4953123;29;20054;-80
2021/10/12 04:54:29;;;;;;;24.25;13.85;;;7.00;99.90;;;;;;4947296;29;20062;-78
2021/10/12 04:56:57;;;;;;;23.67;15.48;;;7.00;99.90;;;;;;4952611;29;20043;-77
2021/10/12 04:59:25;;;;;;;22.02;14.55;;;7.00;99.90;;;;;;4953312;29;20058;-77
2021/10/12 05:01:53;;;;;;;28.50;12.00;;;7.00;99.90;;;;;;4935901;29;20051;-77
2021/10/12 05:04:20;;;;;;;23.30;15.50;;;7.00;99.90;;;;;;4960426;28;20077;-77
2021/10/12 05:06:48;;;;;;;27.75;12.98;;;6.90;99.90;;;;;;4972088;28;20050;-77
2021/10/12 05:09:16;;;;;;;21.88;14.68;;;6.90;99.90;;;;;;4972057;28;20511;-77
2021/10/12 05:11:44;;;;;;;20.75;13.75;;;6.90;99.90;;;;;;4955334;28;20042;-77
2021/10/12 05:14:12;;;;;;;27.13;15.13;;;6.80;99.90;;;;;;4954641;28;20407;-77
2021/10/12 05:16:39;;;;;;;20.30;12.80;;;6.90;99.90;;;;;;4972239;28;20086;-77
2021/10/12 05:19:07;;;;;;;23.98;11.65;;;6.80;99.90;;;;;;4972701;28;20047;-77
2021/10/12 05:21:35;;;;;;;27.08;14.82;;;6.80;99.90;;;;;;4972126;28;20054;-77
2021/10/12 05:24:03;;;;;;;22.02;10.98;;;6.90;99.90;;;;;;4939205;28;20055;-77
2021/10/12 05:26:30;;;;;;;21.23;13.50;;;6.80;99.90;;;;;;4935427;28;20054;-77
2021/10/12 05:28:58;;;;;;;27.40;16.08;;;6.90;99.90;;;;;;4971909;28;20409;-76
2021/10/12 05:31:26;;;;;;;23.88;14.27;;;7.00;99.90;;;;;;4956335;28;20047;-79
2021/10/12 05:33:54;;;;;;;25.55;14.50;;;7.00;99.90;;;;;;4934413;29;20047;-79
2021/10/12 05:36:22;;;;;;;24.55;15.57;;;7.00;99.90;;;;;;4954044;28;20051;-79
2021/10/12 05:38:49;;;;;;;23.27;13.48;;;7.00;99.90;;;;;;4954827;29;20047;-79
2021/10/12 05:41:17;;;;;;;26.00;15.02;;;6.90;99.90;;;;;;4954996;28;20052;-79
2021/10/12 05:43:46;;;;;;;21.80;13.90;;;6.90;99.90;;;;;;4955667;29;20390;-79
2021/10/12 05:46:14;;;;;;;24.08;13.93;;;6.80;99.90;;;;;;4955290;29;20052;-79
2021/10/12 05:48:42;;;;;;;24.63;13.23;;;6.90;99.90;;;;;;4955426;28;20082;-79
2021/10/12 05:51:11;;;;;;;24.25;14.45;;;6.80;99.90;;;;;;4955644;29;20059;-80
2021/10/12 05:53:46;;;;;;;24.10;14.17;;;6.80;99.90;;;;;;4955397;29;20420;-79
2021/10/12 05:56:21;;;;;;;26.98;14.57;;;6.80;99.90;;;;;;4956028;29;20062;-80
2021/10/12 05:58:49;;;;;;;16.42;11.70;;;6.80;99.90;;;;;;4954645;29;20512;-85
2021/10/12 06:01:19;;;;;;;25.85;14.35;;;6.80;99.90;;;;;;4938252;29;20077;-85
2021/10/12 06:03:47;;;;;;;22.20;13.02;;;6.80;99.90;;;;;;4925925;28;20051;-85
2021/10/12 06:06:16;;;;;;;24.30;13.10;;;6.80;99.90;;;;;;4925736;28;20050;-85
2021/10/12 06:08:46;;;;;;;26.27;13.73;;;6.90;99.90;;;;;;4941690;28;20054;-85
2021/10/12 06:11:14;;;;;;;18.67;13.15;;;6.90;99.90;;;;;;4941312;28;20058;-80
2021/10/12 06:13:42;;;;;;;22.85;12.52;;;6.80;99.90;;;;;;4966673;28;20040;-79
2021/10/12 06:16:10;;;;;;;21.40;13.82;;;6.90;99.90;;;;;;4919677;29;20055;-79
2021/10/12 06:18:37;;;;;;;26.70;16.42;;;6.80;99.90;;;;;;4936092;29;20054;-80
2021/10/12 06:21:05;;;;;;;18.63;12.35;;;6.80;99.90;;;;;;4918873;29;20048;-79
2021/10/12 06:23:33;;;;;;;21.55;12.50;;;6.90;99.90;;;;;;4936150;29;20055;-80
2021/10/12 06:26:01;;;;;;;26.88;14.50;;;6.90;99.90;;;;;;4935946;29;20051;-79
2021/10/12 06:28:29;;;;;;;26.20;12.57;;;6.90;99.90;;;;;;4950019;28;20375;-79
2021/10/12 06:30:57;;;;;;;17.40;11.32;;;6.90;99.90;;;;;;4974099;28;20059;-80
2021/10/12 06:33:25;;;;;;;18.65;12.75;;;7.00;99.90;;;;;;4966276;28;20062;-79
2021/10/12 06:35:52;;;;;;;23.98;14.15;;;6.90;99.90;;;;;;4938266;29;20043;-79
2021/10/12 06:38:20;;;;;;;23.67;14.80;;;7.00;99.90;;;;;;4954585;29;20537;-79
2021/10/12 06:40:48;;;;;;;23.23;13.68;;;6.90;99.90;;;;;;4954487;28;20055;-81
2021/10/12 06:43:16;;;;;;;34.08;18.85;;;7.00;99.90;;;;;;4954663;29;20464;-81
2021/10/12 06:45:44;;;;;;;18.73;12.75;;;7.00;99.90;;;;;;4954586;29;20501;-82
2021/10/12 06:48:11;;;;;;;25.08;16.42;;;7.10;99.90;;;;;;4941750;28;20062;-82
2021/10/12 06:50:40;;;;;;;21.52;14.20;;;7.20;99.90;;;;;;4917498;29;20044;-82
2021/10/12 06:53:07;;;;;;;24.60;13.38;;;7.20;99.90;;;;;;4934250;29;20047;-82
2021/10/12 06:55:35;;;;;;;31.85;15.90;;;7.10;99.90;;;;;;4936034;29;20587;-81
2021/10/12 06:58:03;;;;;;;24.73;14.68;;;7.10;99.90;;;;;;4934553;29;20047;-80
2021/10/12 07:00:31;;;;;;;29.42;17.30;;;7.10;99.90;;;;;;4935260;29;20477;-81
2021/10/12 07:02:59;;;;;;;26.13;15.48;;;7.20;99.90;;;;;;4935574;29;20070;-80
2021/10/12 07:05:26;;;;;;;27.05;15.23;;;7.20;99.90;;;;;;4967612;28;20051;-80
2021/10/12 07:07:54;;;;;;;25.38;16.48;;;7.20;99.90;;;;;;4956860;28;20536;-80
2021/10/12 07:10:22;;;;;;;25.65;15.70;;;7.20;99.90;;;;;;4973258;28;20051;-80
2021/10/12 07:12:52;;;;;;;23.73;15.68;;;7.20;99.90;;;;;;4972779;28;20050;-80
2021/10/12 07:15:20;;;;;;;31.08;15.43;;;7.20;99.90;;;;;;4973815;28;20055;-80
2021/10/12 07:17:47;;;;;;;26.63;14.65;;;7.10;99.90;;;;;;4955590;28;20047;-79
2021/10/12 07:20:15;;;;;;;27.67;15.25;;;7.30;99.90;;;;;;4973298;28;20055;-79
2021/10/12 07:22:43;;;;;;;27.13;14.40;;;7.40;99.90;;;;;;4942427;29;20058;-79
2021/10/12 07:25:11;;;;;;;25.63;16.20;;;7.40;99.90;;;;;;4944836;29;20398;-79
2021/10/12 07:27:38;;;;;;;27.30;15.23;;;7.60;99.90;;;;;;4945320;28;20416;-77
2021/10/12 07:30:19;;;;;;;26.15;15.18;;;7.60;99.90;;;;;;4972586;28;20046;-80
2021/10/12 07:32:47;;;;;;;22.75;14.32;;;7.70;99.90;;;;;;4956175;28;20124;-79
2021/10/12 07:35:15;;;;;;;23.45;15.18;;;7.70;99.90;;;;;;4954416;29;20055;-79
2021/10/12 07:37:43;;;;;;;27.88;15.27;;;7.60;99.90;;;;;;4953561;29;20421;-79
2021/10/12 07:40:12;;;;;;;35.00;19.05;;;7.70;99.90;;;;;;4933512;29;20063;-79
2021/10/12 07:42:40;;;;;;;23.77;13.43;;;7.70;99.90;;;;;;4933369;28;20060;-80
2021/10/12 07:45:08;;;;;;;25.05;13.55;;;7.70;99.90;;;;;;4934205;29;20054;-79
2021/10/12 07:47:36;;;;;;;27.27;16.35;;;7.70;99.90;;;;;;4933078;29;20070;-79
2021/10/12 07:50:05;;;;;;;27.42;15.27;;;7.90;99.90;;;;;;4930084;29;20053;-78
2021/10/12 07:52:33;;;;;;;26.70;15.25;;;7.80;99.90;;;;;;4925960;29;20040;-81
2021/10/12 07:55:14;;;;;;;32.67;17.65;;;7.80;99.90;;;;;;4932902;29;20039;-85
2021/10/12 07:57:42;;;;;;;27.77;17.35;;;7.80;99.90;;;;;;4931935;29;20405;-87
2021/10/12 08:00:18;;;;;;;27.13;17.90;;;7.80;99.90;;;;;;4925345;29;20809;-85
2021/10/12 08:02:49;;;;;;;26.15;16.25;;;7.80;99.90;;;;;;4924000;29;20043;-87
2021/10/12 08:05:23;;;;;;;26.83;16.23;;;7.80;99.90;;;;;;4934836;29;20055;-84
2021/10/12 08:07:51;;;;;;;31.63;17.23;;;7.60;99.90;;;;;;4933953;29;20067;-85
2021/10/12 08:10:30;;;;;;;23.42;13.65;;;7.60;99.90;;;;;;4916629;29;20051;-83
2021/10/12 08:13:02;;;;;;;25.75;16.63;;;7.60;99.90;;;;;;4916083;29;20051;-80
2021/10/12 08:15:30;;;;;;;31.25;17.48;;;7.60;99.90;;;;;;4929711;29;20067;-83
2021/10/12 08:17:58;;;;;;;29.27;18.23;;;7.60;99.90;;;;;;4913137;29;20051;-83
2021/10/12 08:20:26;;;;;;;26.67;17.00;;;7.60;99.90;;;;;;4898032;29;20099;-83
2021/10/12 08:22:54;;;;;;;22.27;13.00;;;7.70;99.90;;;;;;4913229;29;20402;-82
2021/10/12 08:25:22;;;;;;;29.02;16.55;;;7.70;99.90;;;;;;4913413;29;20410;-83
2021/10/12 08:27:50;;;;;;;25.17;15.52;;;7.80;99.90;;;;;;4934225;29;20078;-84
2021/10/12 08:30:18;;;;;;;23.42;13.63;;;7.90;99.90;;;;;;4951215;28;20043;-83
2021/10/12 08:32:46;;;;;;;26.17;16.13;;;8.00;99.90;;;;;;4951139;28;20054;-81
2021/10/12 08:35:14;;;;;;;26.75;19.05;;;8.00;99.90;;;;;;4935991;29;20055;-83
2021/10/12 08:37:42;;;;;;;25.10;14.65;;;8.10;99.90;;;;;;4952654;28;20054;-82
2021/10/12 08:40:16;;;;;;;30.02;14.10;;;8.20;99.90;;;;;;4951659;28;20103;-85
2021/10/12 08:42:47;;;;;;;27.33;14.98;;;8.10;99.90;;;;;;4934706;29;20508;-83
2021/10/12 08:45:22;;;;;;;21.23;12.10;;;8.20;99.90;;;;;;4935022;29;20047;-84
2021/10/12 08:47:51;;;;;;;25.80;14.63;;;8.10;99.90;;;;;;4910611;29;20059;-86
2021/10/12 08:50:22;;;;;;;26.80;14.50;;;8.10;99.90;;;;;;4933214;28;20063;-83
2021/10/12 08:52:50;;;;;;;26.27;13.50;;;8.10;99.90;;;;;;4931672;29;20044;-83
2021/10/12 08:55:18;;;;;;;24.10;15.70;;;8.10;99.90;;;;;;4916862;29;20060;-87
2021/10/12 08:57:47;;;;;;;25.10;16.48;;;8.10;99.90;;;;;;4915219;29;20047;-84
2021/10/12 09:00:18;;;;;;;24.50;14.93;;;8.10;99.90;;;;;;4932056;29;20059;-80
2021/10/12 09:05:57;;;;;;;32.42;15.38;;;8.10;99.90;;;;;;4914156;29;20498;-83
2021/10/12 09:08:30;;;;;;;24.50;13.90;;;8.10;99.90;;;;;;4897077;29;20060;-84
2021/10/12 09:11:21;;;;;;;25.92;15.63;;;8.10;99.90;;;;;;4911718;29;20085;-85
2021/10/12 09:14:02;;;;;;;23.75;12.88;;;8.20;99.90;;;;;;4912828;29;20048;-84
2021/10/12 09:16:45;;;;;;;28.60;15.75;;;8.10;99.90;;;;;;4927899;29;20059;-83
2021/10/12 09:19:18;;;;;;;26.48;14.23;;;8.20;99.90;;;;;;4933585;29;20052;-83
2021/10/12 09:21:50;;;;;;;17.85;11.13;;;8.30;99.90;;;;;;4931551;29;20071;-83
2021/10/12 09:24:23;;;;;;;19.98;11.57;;;8.30;99.90;;;;;;4914889;29;20064;-86
2021/10/12 09:27:05;;;;;;;27.80;13.88;;;8.30;99.90;;;;;;4886767;29;20053;-84
2021/10/12 09:29:36;;;;;;;24.70;15.07;;;8.40;99.90;;;;;;4931564;29;20124;-83
2021/10/12 09:32:09;;;;;;;15.43;11.93;;;8.50;99.90;;;;;;4924795;29;20594;-84
2021/10/12 09:34:41;;;;;;;26.40;15.52;;;8.50;99.90;;;;;;4929157;29;20052;-85
2021/10/12 09:37:09;;;;;;;24.83;12.60;;;8.50;99.90;;;;;;4915214;29;20062;-84
2021/10/12 09:39:43;;;;;;;18.48;12.85;;;8.70;99.90;;;;;;4932133;29;20047;-85
2021/10/12 09:42:17;;;;;;;26.52;13.55;;;8.60;99.90;;;;;;4918510;29;20048;-84
2021/10/12 09:44:53;;;;;;;16.08;10.20;;;8.60;99.90;;;;;;4919156;29;20051;-86
2021/10/12 09:47:22;;;;;;;20.40;8.43;;;8.50;99.90;;;;;;4903240;29;20058;-83
2021/10/12 09:50:14;;;;;;;16.17;9.48;;;8.60;99.90;;;;;;4938774;29;20078;-85
2021/10/12 09:52:45;;;;;;;16.23;9.55;;;8.60;99.90;;;;;;4932890;29;20585;-87
2021/10/12 09:55:19;;;;;;;15.20;10.40;;;8.60;99.90;;;;;;4904402;29;20522;-87
2021/10/12 09:57:57;;;;;;;11.38;8.60;;;8.60;99.90;;;;;;4895053;29;20039;-88
2021/10/12 10:00:31;;;;;;;16.17;9.48;;;8.70;99.90;;;;;;4903673;29;20062;-88
2021/10/12 10:03:06;;;;;;;13.70;9.13;;;8.70;99.90;;;;;;4951769;29;20051;-86
2021/10/12 10:05:36;;;;;;;11.90;8.80;;;8.80;99.90;;;;;;4938351;29;20050;-84
2021/10/12 10:08:06;;;;;;;12.65;8.40;;;8.80;99.90;;;;;;4934763;29;20048;-86
2021/10/12 10:10:45;;;;;;;8.73;6.07;;;8.90;99.90;;;;;;4935702;29;20382;-89
2021/10/12 10:13:18;;;;;;;10.32;7.55;;;9.00;99.90;;;;;;4933439;29;20048;-85
2021/10/12 10:15:59;;;;;;;13.40;8.13;;;9.00;99.90;;;;;;4919479;29;20051;-85
2021/10/12 10:18:34;;;;;;;12.45;7.45;;;9.10;99.90;;;;;;4918635;29;20046;-87
2021/10/12 10:21:03;;;;;;;11.55;9.15;;;9.00;99.90;;;;;;4934350;28;20043;-86
2021/10/12 10:24:22;;;;;;;11.30;6.78;;;8.90;99.90;;;;;;4920641;29;21000;-84
2021/10/12 10:26:57;;;;;;;8.93;6.57;;;8.80;99.90;;;;;;4924308;28;20053;-79
2021/10/12 10:29:36;;;;;;;8.00;5.82;;;8.80;99.90;;;;;;4955389;28;20531;-77
2021/10/12 10:32:22;;;;;;;7.57;6.80;;;8.60;99.90;;;;;;4932501;29;20051;-79
2021/10/12 10:35:02;;;;;;;13.95;6.93;;;8.30;99.90;;;;;;4920627;29;20054;-78
2021/10/12 10:37:33;;;;;;;9.75;6.50;;;8.10;99.90;;;;;;4937488;29;20043;-78
2021/10/12 10:40:23;;;;;;;15.73;9.10;;;7.90;99.90;;;;;;4954439;29;20408;-79
2021/10/12 10:42:54;;;;;;;10.52;6.82;;;7.90;99.90;;;;;;4920985;29;20054;-86
2021/10/12 10:45:40;;;;;;;15.90;6.22;;;7.90;99.90;;;;;;4954496;29;20047;-84
2021/10/12 10:48:10;;;;;;;10.85;9.30;;;8.00;99.90;;;;;;4918334;29;20055;-85
2021/10/12 10:50:38;;;;;;;14.33;7.47;;;8.20;99.90;;;;;;4917237;29;20043;-87
2021/10/12 10:53:10;;;;;;;10.75;8.25;;;8.30;99.90;;;;;;4936608;29;20283;-86
2021/10/12 10:55:44;;;;;;;14.68;6.80;;;8.50;99.90;;;;;;4923079;29;20051;-87
2021/10/12 10:58:20;;;;;;;11.13;7.43;;;8.60;99.90;;;;;;4919918;29;20046;-86
2021/10/12 11:00:51;;;;;;;8.30;5.90;;;8.50;99.90;;;;;;4948754;28;20059;-87
2021/10/12 11:03:25;;;;;;;8.50;5.28;;;8.60;99.90;;;;;;4937243;29;20043;-87
2021/10/12 11:05:54;;;;;;;12.15;7.07;;;8.70;99.90;;;;;;4902524;29;20501;-86
2021/10/12 11:08:29;;;;;;;9.02;6.45;;;8.60;99.90;;;;;;4910871;29;20055;-88
2021/10/12 11:11:02;;;;;;;7.30;5.78;;;8.80;99.90;;;;;;4935173;29;20500;-86
2021/10/12 11:13:38;;;;;;;9.68;7.20;;;8.80;99.90;;;;;;4953161;28;20054;-86
2021/10/12 11:16:10;;;;;;;9.45;5.35;;;8.90;99.90;;;;;;4921869;29;20519;-85
2021/10/12 11:18:41;;;;;;;7.53;5.70;;;9.00;99.90;;;;;;4921361;29;20043;-84
2021/10/12 11:21:11;;;;;;;9.30;5.85;;;8.90;99.90;;;;;;4920815;29;20046;-87
2021/10/12 11:23:49;;;;;;;12.50;7.07;;;8.90;99.90;;;;;;4904569;29;20054;-87
2021/10/12 11:26:21;;;;;;;11.75;6.97;;;9.10;99.90;;;;;;4935388;29;20054;-89
2021/10/12 11:28:53;;;;;;;9.95;7.20;;;9.10;99.90;;;;;;4954658;28;20047;-89
2021/10/12 11:31:23;;;;;;;10.02;7.60;;;9.10;99.90;;;;;;4957367;28;20047;-88
2021/10/12 11:33:54;;;;;;;13.80;7.35;;;9.10;99.90;;;;;;4924081;29;20035;-86
2021/10/12 11:36:25;;;;;;;9.40;5.97;;;9.10;99.90;;;;;;4937848;29;20051;-87
2021/10/12 11:38:55;;;;;;;13.87;9.60;;;8.90;99.90;;;;;;4918276;29;20050;-88
2021/10/12 11:41:27;;;;;;;13.18;8.80;;;8.70;99.90;;;;;;4891853;29;20043;-87
2021/10/12 11:44:13;;;;;;;10.32;8.77;;;8.80;99.90;;;;;;4901611;29;20056;-84
2021/10/12 11:47:11;;;;;;;11.75;6.65;;;8.80;99.90;;;;;;4917615;29;20051;-88
2021/10/12 11:49:41;;;;;;;13.85;8.05;;;8.90;99.90;;;;;;4933167;29;20524;-87
2021/10/12 11:52:11;;;;;;;9.82;6.60;;;8.70;99.90;;;;;;4917459;29;20058;-86
2021/10/12 11:54:39;;;;;;;11.35;8.20;;;8.70;99.90;;;;;;4916847;29;20682;-86
2021/10/12 11:57:16;;;;;;;20.83;10.10;;;8.70;99.90;;;;;;4932289;29;20051;-85
2021/10/12 11:59:48;;;;;;;12.13;8.27;;;8.50;99.90;;;;;;4934436;29;20062;-85
2021/10/12 12:02:17;;;;;;;11.02;7.60;;;8.40;99.90;;;;;;4932322;29;20516;-86
2021/10/12 12:04:44;;;;;;;10.60;6.72;;;8.40;99.90;;;;;;4912101;28;20062;-87
2021/10/12 12:07:14;;;;;;;13.02;9.02;;;8.40;99.90;;;;;;4952229;29;20573;-86
2021/10/12 12:09:46;;;;;;;15.52;6.20;;;8.50;99.90;;;;;;4953177;28;20445;-84
2021/10/12 12:12:14;;;;;;;9.80;7.63;;;8.40;99.90;;;;;;4906614;29;20152;-85
2021/10/12 12:14:42;;;;;;;11.45;8.63;;;8.40;99.90;;;;;;4933714;29;20032;-84
2021/10/12 12:17:13;;;;;;;11.70;8.30;;;8.50;99.90;;;;;;4937681;29;20051;-86
2021/10/12 12:19:47;;;;;;;10.43;7.53;;;8.50;99.90;;;;;;4933878;29;20044;-87
2021/10/12 12:22:26;;;;;;;11.32;6.28;;;8.50;99.90;;;;;;4932947;29;20055;-84
2021/10/12 12:25:02;;;;;;;11.32;8.32;;;8.40;99.90;;;;;;4931179;29;20039;-85
2021/10/12 12:27:49;;;;;;;11.95;8.30;;;8.40;99.90;;;;;;4904891;29;20054;-87
2021/10/12 12:30:17;;;;;;;8.98;7.45;;;8.50;99.90;;;;;;4906809;29;20571;-84
2021/10/12 12:32:59;;;;;;;13.90;6.63;;;8.60;99.90;;;;;;4914814;29;20397;-85
2021/10/12 12:35:27;;;;;;;13.93;8.43;;;8.70;99.90;;;;;;4918854;29;20036;-83
2021/10/12 12:37:58;;;;;;;9.00;7.85;;;8.70;99.90;;;;;;4929690;29;20409;-83
2021/10/12 12:40:28;;;;;;;;;;;8.60;99.90;;;;;;4934884;28;20376;-87
2021/10/12 12:42:58;;;;;;;11.95;7.50;;;8.50;99.90;;;;;;4941013;28;19933;-87
2021/10/12 12:45:27;;;;;;;14.55;9.50;;;8.40;99.90;;;;;;4918258;29;20050;-84
2021/10/12 12:48:02;;;;;;;12.50;7.78;;;8.30;99.90;;;;;;4896707;28;20501;-83
2021/10/12 12:50:34;;;;;;;19.33;10.57;;;8.30;99.90;;;;;;4917298;29;20051;-85
2021/10/12 12:53:05;;;;;;;11.77;7.22;;;8.30;99.90;;;;;;4942880;29;20039;-86
2021/10/12 12:55:33;;;;;;;9.30;8.00;;;8.20;99.90;;;;;;4919453;29;20055;-85
2021/10/12 12:58:01;;;;;;;9.85;8.30;;;8.30;99.90;;;;;;4908870;28;20046;-86
2021/10/12 13:00:30;;;;;;;11.70;7.70;;;8.20;99.90;;;;;;4906755;29;20059;-87